sensor_id;sensor_type;location;lat;lon;timestamp;temperature;humidity
10417;DHT22;62605;49.432;8.680;2023-07-13T00:00:23;21.10;1.00
10417;DHT22;62605;49.432;8.680;2023-07-13T00:02:50;21.10;1.00
10417;DHT22;62605;49.432;8.680;2023-07-13T00:05:19;21.10;1.00
10417;DHT22;62605;49.432;8.680;2023-07-13T00:07:47;21.00;1.00
10417;DHT22;62605;49.432;8.680;2023-07-13T00:10:14;21.00;1.00
10417;DHT22;62605;49.432;8.680;2023-07-13T00:12:45;20.90;1.00
10417;DHT22;62605;49.432;8.680;2023-07-13T00:15:15;20.90;1.00
10417;DHT22;62605;49.432;8.680;2023-07-13T00:17:46;21.00;1.00
10417;DHT22;62605;49.432;8.680;2023-07-13T00:20:14;20.90;1.00
10417;DHT22;62605;49.432;8.680;2023-07-13T00:22:41;20.90;1.00
10417;DHT22;62605;49.432;8.680;2023-07-13T00:25:10;20.90;1.00
10417;DHT22;62605;49.432;8.680;2023-07-13T00:27:38;20.90;1.00
10417;DHT22;62605;49.432;8.680;2023-07-13T00:30:08;20.90;1.00
10417;DHT22;62605;49.432;8.680;2023-07-13T00:32:37;20.80;1.00
10417;DHT22;62605;49.432;8.680;2023-07-13T00:35:05;20.70;1.00
10417;DHT22;62605;49.432;8.680;2023-07-13T00:37:32;20.60;1.00
10417;DHT22;62605;49.432;8.680;2023-07-13T00:40:01;20.50;1.00
10417;DHT22;62605;49.432;8.680;2023-07-13T00:42:29;20.50;1.00
10417;DHT22;62605;49.432;8.680;2023-07-13T00:47:50;20.30;1.00
10417;DHT22;62605;49.432;8.680;2023-07-13T00:50:19;20.20;1.00
10417;DHT22;62605;49.432;8.680;2023-07-13T00:52:50;20.10;1.00
10417;DHT22;62605;49.432;8.680;2023-07-13T00:55:21;20.10;1.00
10417;DHT22;62605;49.432;8.680;2023-07-13T00:57:48;20.00;1.00
10417;DHT22;62605;49.432;8.680;2023-07-13T01:00:20;20.00;1.00
10417;DHT22;62605;49.432;8.680;2023-07-13T01:02:49;19.90;1.00
10417;DHT22;62605;49.432;8.680;2023-07-13T01:05:18;19.80;1.00
10417;DHT22;62605;49.432;8.680;2023-07-13T01:07:47;19.70;1.00
10417;DHT22;62605;49.432;8.680;2023-07-13T01:13:05;19.60;1.00
10417;DHT22;62605;49.432;8.680;2023-07-13T01:15:42;19.50;1.00
10417;DHT22;62605;49.432;8.680;2023-07-13T01:18:12;19.40;1.00
10417;DHT22;62605;49.432;8.680;2023-07-13T01:20:40;19.30;1.00
10417;DHT22;62605;49.432;8.680;2023-07-13T01:23:11;19.20;1.00
10417;DHT22;62605;49.432;8.680;2023-07-13T01:25:39;19.20;1.00
10417;DHT22;62605;49.432;8.680;2023-07-13T01:28:07;19.20;1.00
10417;DHT22;62605;49.432;8.680;2023-07-13T01:30:36;19.10;1.00
10417;DHT22;62605;49.432;8.680;2023-07-13T01:33:04;19.10;1.00
10417;DHT22;62605;49.432;8.680;2023-07-13T01:35:31;19.00;1.00
10417;DHT22;62605;49.432;8.680;2023-07-13T01:37:58;19.00;1.00
10417;DHT22;62605;49.432;8.680;2023-07-13T01:40:29;19.00;1.00
10417;DHT22;62605;49.432;8.680;2023-07-13T01:42:58;18.90;1.00
10417;DHT22;62605;49.432;8.680;2023-07-13T01:45:26;18.90;1.00
10417;DHT22;62605;49.432;8.680;2023-07-13T01:47:54;18.80;2.90
10417;DHT22;62605;49.432;8.680;2023-07-13T01:50:21;18.80;24.00
10417;DHT22;62605;49.432;8.680;2023-07-13T01:52:49;18.70;16.50
10417;DHT22;62605;49.432;8.680;2023-07-13T01:55:18;18.70;43.20
10417;DHT22;62605;49.432;8.680;2023-07-13T01:57:47;18.60;69.30
10417;DHT22;62605;49.432;8.680;2023-07-13T02:00:15;18.50;99.90
10417;DHT22;62605;49.432;8.680;2023-07-13T02:02:43;18.50;99.90
10417;DHT22;62605;49.432;8.680;2023-07-13T02:05:11;18.40;99.90
10417;DHT22;62605;49.432;8.680;2023-07-13T02:07:39;18.30;97.20
10417;DHT22;62605;49.432;8.680;2023-07-13T02:10:08;18.20;99.90
10417;DHT22;62605;49.432;8.680;2023-07-13T02:12:37;18.20;99.90
10417;DHT22;62605;49.432;8.680;2023-07-13T02:15:07;18.10;98.40
10417;DHT22;62605;49.432;8.680;2023-07-13T02:17:35;18.10;99.90
10417;DHT22;62605;49.432;8.680;2023-07-13T02:20:02;18.00;99.90
10417;DHT22;62605;49.432;8.680;2023-07-13T02:22:30;17.90;99.90
10417;DHT22;62605;49.432;8.680;2023-07-13T02:24:57;17.70;99.90
10417;DHT22;62605;49.432;8.680;2023-07-13T02:27:25;17.70;99.90
10417;DHT22;62605;49.432;8.680;2023-07-13T02:29:53;17.60;99.90
10417;DHT22;62605;49.432;8.680;2023-07-13T02:32:22;17.60;99.90
10417;DHT22;62605;49.432;8.680;2023-07-13T02:34:57;17.70;99.90
10417;DHT22;62605;49.432;8.680;2023-07-13T02:37:31;17.60;99.90
10417;DHT22;62605;49.432;8.680;2023-07-13T02:40:09;17.50;99.90
10417;DHT22;62605;49.432;8.680;2023-07-13T02:42:36;17.60;99.90
10417;DHT22;62605;49.432;8.680;2023-07-13T02:45:04;17.60;99.90
10417;DHT22;62605;49.432;8.680;2023-07-13T02:47:33;17.70;99.90
10417;DHT22;62605;49.432;8.680;2023-07-13T02:50:01;17.70;99.90
10417;DHT22;62605;49.432;8.680;2023-07-13T02:52:28;17.60;99.90
10417;DHT22;62605;49.432;8.680;2023-07-13T02:54:55;17.60;99.90
10417;DHT22;62605;49.432;8.680;2023-07-13T02:57:22;17.60;99.90
10417;DHT22;62605;49.432;8.680;2023-07-13T02:59:50;17.60;99.90
10417;DHT22;62605;49.432;8.680;2023-07-13T03:02:20;17.50;99.90
10417;DHT22;62605;49.432;8.680;2023-07-13T03:04:49;17.50;99.90
10417;DHT22;62605;49.432;8.680;2023-07-13T03:07:17;17.50;99.90
10417;DHT22;62605;49.432;8.680;2023-07-13T03:09:44;17.50;99.90
10417;DHT22;62605;49.432;8.680;2023-07-13T03:12:16;17.60;99.90
10417;DHT22;62605;49.432;8.680;2023-07-13T03:14:43;17.70;99.90
10417;DHT22;62605;49.432;8.680;2023-07-13T03:17:10;17.80;99.90
10417;DHT22;62605;49.432;8.680;2023-07-13T03:19:37;17.80;99.90
10417;DHT22;62605;49.432;8.680;2023-07-13T03:22:06;17.90;99.90
10417;DHT22;62605;49.432;8.680;2023-07-13T03:24:34;17.80;99.90
10417;DHT22;62605;49.432;8.680;2023-07-13T03:27:05;17.80;99.90
10417;DHT22;62605;49.432;8.680;2023-07-13T03:29:33;17.80;99.90
10417;DHT22;62605;49.432;8.680;2023-07-13T03:32:00;17.80;99.90
10417;DHT22;62605;49.432;8.680;2023-07-13T03:34:31;17.80;99.90
10417;DHT22;62605;49.432;8.680;2023-07-13T03:36:58;17.80;99.90
10417;DHT22;62605;49.432;8.680;2023-07-13T03:39:27;17.70;99.90
10417;DHT22;62605;49.432;8.680;2023-07-13T03:41:54;17.60;99.90
10417;DHT22;62605;49.432;8.680;2023-07-13T03:44:21;17.60;99.90
10417;DHT22;62605;49.432;8.680;2023-07-13T03:46:51;17.60;99.90
10417;DHT22;62605;49.432;8.680;2023-07-13T03:49:19;17.50;99.90
10417;DHT22;62605;49.432;8.680;2023-07-13T03:51:49;17.60;99.90
10417;DHT22;62605;49.432;8.680;2023-07-13T03:54:18;17.50;99.90
10417;DHT22;62605;49.432;8.680;2023-07-13T03:56:47;17.50;99.90
10417;DHT22;62605;49.432;8.680;2023-07-13T03:59:17;17.40;99.90
10417;DHT22;62605;49.432;8.680;2023-07-13T04:01:44;17.40;99.90
10417;DHT22;62605;49.432;8.680;2023-07-13T04:04:14;17.40;99.90
10417;DHT22;62605;49.432;8.680;2023-07-13T04:06:45;17.30;99.90
10417;DHT22;62605;49.432;8.680;2023-07-13T04:09:14;17.30;99.90
10417;DHT22;62605;49.432;8.680;2023-07-13T04:11:41;17.30;99.90
10417;DHT22;62605;49.432;8.680;2023-07-13T04:14:10;17.30;99.90
10417;DHT22;62605;49.432;8.680;2023-07-13T04:16:37;17.30;99.90
10417;DHT22;62605;49.432;8.680;2023-07-13T04:19:12;17.30;99.90
10417;DHT22;62605;49.432;8.680;2023-07-13T04:21:39;17.30;99.90
10417;DHT22;62605;49.432;8.680;2023-07-13T04:24:06;17.30;99.90
10417;DHT22;62605;49.432;8.680;2023-07-13T04:26:42;17.30;99.90
10417;DHT22;62605;49.432;8.680;2023-07-13T04:29:10;17.30;99.90
10417;DHT22;62605;49.432;8.680;2023-07-13T04:31:38;17.30;99.90
10417;DHT22;62605;49.432;8.680;2023-07-13T04:34:05;17.30;99.90
10417;DHT22;62605;49.432;8.680;2023-07-13T04:36:32;17.30;99.90
10417;DHT22;62605;49.432;8.680;2023-07-13T04:39:03;17.30;99.90
10417;DHT22;62605;49.432;8.680;2023-07-13T04:41:30;17.30;99.90
10417;DHT22;62605;49.432;8.680;2023-07-13T04:43:58;17.30;99.90
10417;DHT22;62605;49.432;8.680;2023-07-13T04:46:26;17.20;99.90
10417;DHT22;62605;49.432;8.680;2023-07-13T04:48:53;17.20;99.90
10417;DHT22;62605;49.432;8.680;2023-07-13T04:51:21;17.20;99.90
10417;DHT22;62605;49.432;8.680;2023-07-13T04:53:48;17.20;99.90
10417;DHT22;62605;49.432;8.680;2023-07-13T04:56:15;17.10;99.90
10417;DHT22;62605;49.432;8.680;2023-07-13T04:58:43;17.20;99.90
10417;DHT22;62605;49.432;8.680;2023-07-13T05:01:10;17.20;99.90
10417;DHT22;62605;49.432;8.680;2023-07-13T05:03:40;17.40;99.90
10417;DHT22;62605;49.432;8.680;2023-07-13T05:06:08;17.40;99.90
10417;DHT22;62605;49.432;8.680;2023-07-13T05:08:38;17.40;99.90
10417;DHT22;62605;49.432;8.680;2023-07-13T05:11:05;17.40;99.90
10417;DHT22;62605;49.432;8.680;2023-07-13T05:13:34;17.60;99.90
10417;DHT22;62605;49.432;8.680;2023-07-13T05:16:03;17.60;99.90
10417;DHT22;62605;49.432;8.680;2023-07-13T05:18:31;17.70;99.90
10417;DHT22;62605;49.432;8.680;2023-07-13T05:21:01;17.80;99.90
10417;DHT22;62605;49.432;8.680;2023-07-13T05:23:29;17.80;99.90
10417;DHT22;62605;49.432;8.680;2023-07-13T05:25:57;17.90;99.90
10417;DHT22;62605;49.432;8.680;2023-07-13T05:28:25;18.00;99.90
10417;DHT22;62605;49.432;8.680;2023-07-13T05:30:52;18.00;99.90
10417;DHT22;62605;49.432;8.680;2023-07-13T05:33:20;18.10;99.90
10417;DHT22;62605;49.432;8.680;2023-07-13T05:35:47;18.20;99.90
10417;DHT22;62605;49.432;8.680;2023-07-13T05:38:16;18.30;99.90
10417;DHT22;62605;49.432;8.680;2023-07-13T05:40:43;18.40;99.90
10417;DHT22;62605;49.432;8.680;2023-07-13T05:43:10;18.30;99.90
10417;DHT22;62605;49.432;8.680;2023-07-13T05:45:38;18.30;99.90
10417;DHT22;62605;49.432;8.680;2023-07-13T05:48:05;18.40;99.90
10417;DHT22;62605;49.432;8.680;2023-07-13T05:50:39;18.50;99.90
10417;DHT22;62605;49.432;8.680;2023-07-13T05:53:06;18.80;99.90
10417;DHT22;62605;49.432;8.680;2023-07-13T05:55:51;18.90;99.90
10417;DHT22;62605;49.432;8.680;2023-07-13T05:58:20;18.90;99.90
10417;DHT22;62605;49.432;8.680;2023-07-13T06:00:48;19.00;99.90
10417;DHT22;62605;49.432;8.680;2023-07-13T06:03:17;19.00;99.90
10417;DHT22;62605;49.432;8.680;2023-07-13T06:05:45;19.10;99.90
10417;DHT22;62605;49.432;8.680;2023-07-13T06:08:13;19.10;99.90
10417;DHT22;62605;49.432;8.680;2023-07-13T06:10:41;19.10;99.90
10417;DHT22;62605;49.432;8.680;2023-07-13T06:13:09;19.20;99.90
10417;DHT22;62605;49.432;8.680;2023-07-13T06:15:53;19.10;99.90
10417;DHT22;62605;49.432;8.680;2023-07-13T06:18:23;19.10;99.90
10417;DHT22;62605;49.432;8.680;2023-07-13T06:20:50;19.10;99.90
10417;DHT22;62605;49.432;8.680;2023-07-13T06:23:17;19.10;99.90
10417;DHT22;62605;49.432;8.680;2023-07-13T06:25:46;19.00;99.90
10417;DHT22;62605;49.432;8.680;2023-07-13T06:28:18;19.00;99.90
10417;DHT22;62605;49.432;8.680;2023-07-13T06:30:48;19.10;99.90
10417;DHT22;62605;49.432;8.680;2023-07-13T06:33:15;19.10;99.90
10417;DHT22;62605;49.432;8.680;2023-07-13T06:35:45;19.20;99.90
10417;DHT22;62605;49.432;8.680;2023-07-13T06:38:12;19.30;99.90
10417;DHT22;62605;49.432;8.680;2023-07-13T06:40:39;19.20;97.80
10417;DHT22;62605;49.432;8.680;2023-07-13T06:43:06;19.20;96.80
10417;DHT22;62605;49.432;8.680;2023-07-13T06:45:40;19.30;69.80
10417;DHT22;62605;49.432;8.680;2023-07-13T06:48:09;19.20;59.90
10417;DHT22;62605;49.432;8.680;2023-07-13T06:50:39;19.40;44.40
10417;DHT22;62605;49.432;8.680;2023-07-13T06:53:10;19.40;49.10
10417;DHT22;62605;49.432;8.680;2023-07-13T06:55:40;19.40;25.40
10417;DHT22;62605;49.432;8.680;2023-07-13T06:58:14;19.20;26.80
10417;DHT22;62605;49.432;8.680;2023-07-13T07:00:50;19.40;12.50
10417;DHT22;62605;49.432;8.680;2023-07-13T07:03:18;19.40;4.60
10417;DHT22;62605;49.432;8.680;2023-07-13T07:07:06;19.50;1.00
10417;DHT22;62605;49.432;8.680;2023-07-13T07:08:34;19.60;1.00
10417;DHT22;62605;49.432;8.680;2023-07-13T07:11:01;19.60;1.00
10417;DHT22;62605;49.432;8.680;2023-07-13T07:13:28;19.80;1.00
10417;DHT22;62605;49.432;8.680;2023-07-13T07:15:57;19.90;1.00
10417;DHT22;62605;49.432;8.680;2023-07-13T07:18:26;20.10;1.00
10417;DHT22;62605;49.432;8.680;2023-07-13T07:20:53;20.20;1.00
10417;DHT22;62605;49.432;8.680;2023-07-13T07:23:21;20.30;1.00
10417;DHT22;62605;49.432;8.680;2023-07-13T07:25:48;20.40;1.00
10417;DHT22;62605;49.432;8.680;2023-07-13T07:28:27;20.40;1.00
10417;DHT22;62605;49.432;8.680;2023-07-13T07:30:57;20.40;1.00
10417;DHT22;62605;49.432;8.680;2023-07-13T07:33:25;20.60;1.00
10417;DHT22;62605;49.432;8.680;2023-07-13T07:36:00;20.70;1.00
10417;DHT22;62605;49.432;8.680;2023-07-13T07:38:28;20.60;1.00
10417;DHT22;62605;49.432;8.680;2023-07-13T07:41:15;20.70;1.00
10417;DHT22;62605;49.432;8.680;2023-07-13T07:43:45;20.80;1.00
10417;DHT22;62605;49.432;8.680;2023-07-13T07:46:17;20.90;1.00
10417;DHT22;62605;49.432;8.680;2023-07-13T07:48:47;21.00;1.00
10417;DHT22;62605;49.432;8.680;2023-07-13T07:51:17;21.20;1.00
10417;DHT22;62605;49.432;8.680;2023-07-13T07:53:44;21.30;1.00
10417;DHT22;62605;49.432;8.680;2023-07-13T07:56:11;21.30;1.00
10417;DHT22;62605;49.432;8.680;2023-07-13T07:58:44;21.20;1.00
10417;DHT22;62605;49.432;8.680;2023-07-13T08:01:20;21.20;1.00
10417;DHT22;62605;49.432;8.680;2023-07-13T08:03:48;21.30;1.00
10417;DHT22;62605;49.432;8.680;2023-07-13T08:06:20;21.20;1.00
10417;DHT22;62605;49.432;8.680;2023-07-13T08:08:50;21.30;1.00
10417;DHT22;62605;49.432;8.680;2023-07-13T08:11:17;21.40;1.00
10417;DHT22;62605;49.432;8.680;2023-07-13T08:13:46;21.60;1.00
10417;DHT22;62605;49.432;8.680;2023-07-13T08:16:16;21.80;1.00
10417;DHT22;62605;49.432;8.680;2023-07-13T08:18:57;21.90;1.00
10417;DHT22;62605;49.432;8.680;2023-07-13T08:21:26;22.20;1.00
10417;DHT22;62605;49.432;8.680;2023-07-13T08:23:54;22.30;1.00
10417;DHT22;62605;49.432;8.680;2023-07-13T08:26:21;22.50;1.00
10417;DHT22;62605;49.432;8.680;2023-07-13T08:28:48;22.50;1.00
10417;DHT22;62605;49.432;8.680;2023-07-13T08:31:15;22.40;1.00
10417;DHT22;62605;49.432;8.680;2023-07-13T08:33:42;22.50;1.00
10417;DHT22;62605;49.432;8.680;2023-07-13T08:36:12;22.50;1.00
10417;DHT22;62605;49.432;8.680;2023-07-13T08:38:42;22.60;1.00
10417;DHT22;62605;49.432;8.680;2023-07-13T08:41:17;22.40;1.00
10417;DHT22;62605;49.432;8.680;2023-07-13T08:43:49;22.60;1.00
10417;DHT22;62605;49.432;8.680;2023-07-13T08:46:23;22.60;1.00
10417;DHT22;62605;49.432;8.680;2023-07-13T08:48:55;22.60;1.00
10417;DHT22;62605;49.432;8.680;2023-07-13T08:51:43;22.50;1.00
10417;DHT22;62605;49.432;8.680;2023-07-13T08:54:19;22.40;1.00
10417;DHT22;62605;49.432;8.680;2023-07-13T08:56:49;22.50;1.00
10417;DHT22;62605;49.432;8.680;2023-07-13T08:59:21;22.50;1.00
10417;DHT22;62605;49.432;8.680;2023-07-13T09:02:03;22.70;1.00
10417;DHT22;62605;49.432;8.680;2023-07-13T09:04:35;22.80;1.00
10417;DHT22;62605;49.432;8.680;2023-07-13T09:07:10;23.10;1.00
10417;DHT22;62605;49.432;8.680;2023-07-13T09:09:50;23.20;1.00
10417;DHT22;62605;49.432;8.680;2023-07-13T09:12:25;23.20;1.00
10417;DHT22;62605;49.432;8.680;2023-07-13T09:14:56;23.60;1.00
10417;DHT22;62605;49.432;8.680;2023-07-13T09:17:27;23.50;1.00
10417;DHT22;62605;49.432;8.680;2023-07-13T09:20:12;23.30;1.00
10417;DHT22;62605;49.432;8.680;2023-07-13T09:22:48;23.30;1.00
10417;DHT22;62605;49.432;8.680;2023-07-13T09:25:27;23.40;1.00
10417;DHT22;62605;49.432;8.680;2023-07-13T09:28:00;23.50;1.00
10417;DHT22;62605;49.432;8.680;2023-07-13T09:30:34;23.80;1.00
10417;DHT22;62605;49.432;8.680;2023-07-13T09:33:05;24.00;1.00
10417;DHT22;62605;49.432;8.680;2023-07-13T09:35:34;23.80;1.00
10417;DHT22;62605;49.432;8.680;2023-07-13T09:38:15;23.70;1.00
10417;DHT22;62605;49.432;8.680;2023-07-13T09:41:04;23.60;1.00
10417;DHT22;62605;49.432;8.680;2023-07-13T09:43:36;23.40;1.00
10417;DHT22;62605;49.432;8.680;2023-07-13T09:46:03;23.90;1.00
10417;DHT22;62605;49.432;8.680;2023-07-13T09:48:35;24.50;1.00
10417;DHT22;62605;49.432;8.680;2023-07-13T09:51:10;24.80;1.00
10417;DHT22;62605;49.432;8.680;2023-07-13T09:53:43;25.30;1.00
10417;DHT22;62605;49.432;8.680;2023-07-13T09:56:19;25.10;1.00
10417;DHT22;62605;49.432;8.680;2023-07-13T09:58:47;25.00;1.00
10417;DHT22;62605;49.432;8.680;2023-07-13T10:01:14;24.90;1.00
10417;DHT22;62605;49.432;8.680;2023-07-13T10:03:53;24.30;1.00
10417;DHT22;62605;49.432;8.680;2023-07-13T10:06:21;24.10;1.00
10417;DHT22;62605;49.432;8.680;2023-07-13T10:08:51;23.90;1.00
10417;DHT22;62605;49.432;8.680;2023-07-13T10:11:20;24.10;1.00
10417;DHT22;62605;49.432;8.680;2023-07-13T10:13:51;24.70;1.00
10417;DHT22;62605;49.432;8.680;2023-07-13T10:16:19;24.80;1.00
10417;DHT22;62605;49.432;8.680;2023-07-13T10:18:49;24.50;1.00
10417;DHT22;62605;49.432;8.680;2023-07-13T10:21:18;24.80;1.00
10417;DHT22;62605;49.432;8.680;2023-07-13T10:23:53;24.80;1.00
10417;DHT22;62605;49.432;8.680;2023-07-13T10:26:25;24.50;1.00
10417;DHT22;62605;49.432;8.680;2023-07-13T10:28:56;24.40;1.00
10417;DHT22;62605;49.432;8.680;2023-07-13T10:31:32;24.70;1.00
10417;DHT22;62605;49.432;8.680;2023-07-13T10:34:01;25.10;1.00
10417;DHT22;62605;49.432;8.680;2023-07-13T10:36:33;25.40;1.00
10417;DHT22;62605;49.432;8.680;2023-07-13T10:39:09;25.40;1.00
10417;DHT22;62605;49.432;8.680;2023-07-13T10:41:41;25.60;1.00
10417;DHT22;62605;49.432;8.680;2023-07-13T10:44:19;25.30;1.00
10417;DHT22;62605;49.432;8.680;2023-07-13T10:46:48;25.60;1.00
10417;DHT22;62605;49.432;8.680;2023-07-13T10:49:16;25.30;1.00
10417;DHT22;62605;49.432;8.680;2023-07-13T10:51:45;24.50;1.00
10417;DHT22;62605;49.432;8.680;2023-07-13T10:54:20;24.50;1.00
10417;DHT22;62605;49.432;8.680;2023-07-13T10:57:08;24.90;1.00
10417;DHT22;62605;49.432;8.680;2023-07-13T10:59:42;25.40;1.00
10417;DHT22;62605;49.432;8.680;2023-07-13T11:02:17;25.30;1.00
10417;DHT22;62605;49.432;8.680;2023-07-13T11:04:48;25.40;1.00
10417;DHT22;62605;49.432;8.680;2023-07-13T11:07:21;25.50;1.00
10417;DHT22;62605;49.432;8.680;2023-07-13T11:09:52;25.30;1.00
10417;DHT22;62605;49.432;8.680;2023-07-13T11:12:51;25.00;1.00
10417;DHT22;62605;49.432;8.680;2023-07-13T11:15:32;25.00;1.00
10417;DHT22;62605;49.432;8.680;2023-07-13T11:18:03;25.00;1.00
10417;DHT22;62605;49.432;8.680;2023-07-13T11:20:37;25.00;1.00
10417;DHT22;62605;49.432;8.680;2023-07-13T11:23:17;24.90;1.00
10417;DHT22;62605;49.432;8.680;2023-07-13T11:25:47;25.30;1.00
10417;DHT22;62605;49.432;8.680;2023-07-13T11:28:17;26.10;1.00
10417;DHT22;62605;49.432;8.680;2023-07-13T11:30:48;25.40;1.00
10417;DHT22;62605;49.432;8.680;2023-07-13T11:33:21;25.60;1.00
10417;DHT22;62605;49.432;8.680;2023-07-13T11:35:53;25.70;1.00
10417;DHT22;62605;49.432;8.680;2023-07-13T11:38:30;25.80;1.00
10417;DHT22;62605;49.432;8.680;2023-07-13T11:41:19;26.10;1.00
10417;DHT22;62605;49.432;8.680;2023-07-13T11:44:08;25.70;1.00
10417;DHT22;62605;49.432;8.680;2023-07-13T11:46:49;25.20;1.00
10417;DHT22;62605;49.432;8.680;2023-07-13T11:49:19;24.90;1.00
10417;DHT22;62605;49.432;8.680;2023-07-13T11:51:49;25.90;1.00
10417;DHT22;62605;49.432;8.680;2023-07-13T11:54:27;26.30;1.00
10417;DHT22;62605;49.432;8.680;2023-07-13T11:57:01;26.50;1.00
10417;DHT22;62605;49.432;8.680;2023-07-13T11:59:30;26.70;1.00
10417;DHT22;62605;49.432;8.680;2023-07-13T12:02:29;26.40;1.00
10417;DHT22;62605;49.432;8.680;2023-07-13T12:04:56;26.40;99.90
10417;DHT22;62605;49.432;8.680;2023-07-13T12:07:27;26.70;99.90
10417;DHT22;62605;49.432;8.680;2023-07-13T12:10:31;26.70;99.90
10417;DHT22;62605;49.432;8.680;2023-07-13T12:13:08;27.30;99.90
10417;DHT22;62605;49.432;8.680;2023-07-13T12:15:38;27.10;99.90
10417;DHT22;62605;49.432;8.680;2023-07-13T12:18:12;27.50;99.90
10417;DHT22;62605;49.432;8.680;2023-07-13T12:20:41;27.00;99.90
10417;DHT22;62605;49.432;8.680;2023-07-13T12:23:20;25.90;99.90
10417;DHT22;62605;49.432;8.680;2023-07-13T12:25:49;25.40;99.90
10417;DHT22;62605;49.432;8.680;2023-07-13T12:28:22;25.10;99.90
10417;DHT22;62605;49.432;8.680;2023-07-13T12:30:51;25.50;99.90
10417;DHT22;62605;49.432;8.680;2023-07-13T12:33:28;25.80;99.90
10417;DHT22;62605;49.432;8.680;2023-07-13T12:35:57;25.80;99.90
10417;DHT22;62605;49.432;8.680;2023-07-13T12:38:27;26.20;99.90
10417;DHT22;62605;49.432;8.680;2023-07-13T12:40:57;26.20;99.90
10417;DHT22;62605;49.432;8.680;2023-07-13T12:43:35;26.70;99.90
10417;DHT22;62605;49.432;8.680;2023-07-13T12:46:05;27.10;99.90
10417;DHT22;62605;49.432;8.680;2023-07-13T12:48:43;27.00;99.90
10417;DHT22;62605;49.432;8.680;2023-07-13T12:51:15;26.80;99.90
10417;DHT22;62605;49.432;8.680;2023-07-13T12:53:43;26.60;99.90
10417;DHT22;62605;49.432;8.680;2023-07-13T12:56:19;26.20;99.90
10417;DHT22;62605;49.432;8.680;2023-07-13T12:59:01;25.80;99.90
10417;DHT22;62605;49.432;8.680;2023-07-13T13:01:31;25.80;99.90
10417;DHT22;62605;49.432;8.680;2023-07-13T13:04:03;25.60;99.90
10417;DHT22;62605;49.432;8.680;2023-07-13T13:06:32;25.60;99.90
10417;DHT22;62605;49.432;8.680;2023-07-13T13:09:02;25.50;99.90
10417;DHT22;62605;49.432;8.680;2023-07-13T13:11:31;25.30;99.90
10417;DHT22;62605;49.432;8.680;2023-07-13T13:14:00;25.20;99.90
10417;DHT22;62605;49.432;8.680;2023-07-13T13:16:32;25.30;99.90
10417;DHT22;62605;49.432;8.680;2023-07-13T13:19:05;25.20;99.90
10417;DHT22;62605;49.432;8.680;2023-07-13T13:21:37;25.30;99.90
10417;DHT22;62605;49.432;8.680;2023-07-13T13:24:11;25.40;99.90
10417;DHT22;62605;49.432;8.680;2023-07-13T13:26:39;25.60;99.90
10417;DHT22;62605;49.432;8.680;2023-07-13T13:29:15;25.70;99.90
10417;DHT22;62605;49.432;8.680;2023-07-13T13:31:43;25.60;99.90
10417;DHT22;62605;49.432;8.680;2023-07-13T13:34:15;25.90;99.90
10417;DHT22;62605;49.432;8.680;2023-07-13T13:36:43;25.60;99.90
10417;DHT22;62605;49.432;8.680;2023-07-13T13:39:20;25.30;99.90
10417;DHT22;62605;49.432;8.680;2023-07-13T13:41:49;25.10;99.90
10417;DHT22;62605;49.432;8.680;2023-07-13T13:44:18;25.10;99.90
10417;DHT22;62605;49.432;8.680;2023-07-13T13:46:48;25.10;99.90
10417;DHT22;62605;49.432;8.680;2023-07-13T13:49:19;25.00;99.90
10417;DHT22;62605;49.432;8.680;2023-07-13T13:51:50;24.80;99.90
10417;DHT22;62605;49.432;8.680;2023-07-13T13:54:23;24.90;99.90
10417;DHT22;62605;49.432;8.680;2023-07-13T13:56:53;24.90;99.90
10417;DHT22;62605;49.432;8.680;2023-07-13T13:59:23;25.10;99.90
10417;DHT22;62605;49.432;8.680;2023-07-13T14:01:51;25.10;99.90
10417;DHT22;62605;49.432;8.680;2023-07-13T14:04:21;25.30;99.90
10417;DHT22;62605;49.432;8.680;2023-07-13T14:06:49;25.40;99.90
10417;DHT22;62605;49.432;8.680;2023-07-13T14:09:18;25.90;99.90
10417;DHT22;62605;49.432;8.680;2023-07-13T14:11:47;25.80;99.90
10417;DHT22;62605;49.432;8.680;2023-07-13T14:14:20;25.60;99.90
10417;DHT22;62605;49.432;8.680;2023-07-13T14:16:50;25.60;99.90
10417;DHT22;62605;49.432;8.680;2023-07-13T14:19:19;25.80;99.90
10417;DHT22;62605;49.432;8.680;2023-07-13T14:21:49;25.80;99.90
10417;DHT22;62605;49.432;8.680;2023-07-13T14:24:19;25.60;99.90
10417;DHT22;62605;49.432;8.680;2023-07-13T14:26:49;25.80;99.90
10417;DHT22;62605;49.432;8.680;2023-07-13T14:29:19;25.90;99.90
10417;DHT22;62605;49.432;8.680;2023-07-13T14:31:49;26.10;99.90
10417;DHT22;62605;49.432;8.680;2023-07-13T14:34:16;26.10;99.90
10417;DHT22;62605;49.432;8.680;2023-07-13T14:36:44;26.40;99.90
10417;DHT22;62605;49.432;8.680;2023-07-13T14:39:18;26.30;99.90
10417;DHT22;62605;49.432;8.680;2023-07-13T14:41:46;26.30;99.90
10417;DHT22;62605;49.432;8.680;2023-07-13T14:44:13;25.80;99.90
10417;DHT22;62605;49.432;8.680;2023-07-13T14:46:42;25.50;99.90
10417;DHT22;62605;49.432;8.680;2023-07-13T14:49:18;25.30;99.90
10417;DHT22;62605;49.432;8.680;2023-07-13T14:51:47;25.20;99.90
10417;DHT22;62605;49.432;8.680;2023-07-13T14:54:14;25.30;99.90
10417;DHT22;62605;49.432;8.680;2023-07-13T14:56:41;25.60;99.90
10417;DHT22;62605;49.432;8.680;2023-07-13T14:59:09;25.70;99.90
10417;DHT22;62605;49.432;8.680;2023-07-13T15:01:37;25.50;99.90
10417;DHT22;62605;49.432;8.680;2023-07-13T15:04:04;25.60;99.90
10417;DHT22;62605;49.432;8.680;2023-07-13T15:06:55;25.50;99.90
10417;DHT22;62605;49.432;8.680;2023-07-13T15:09:23;25.40;99.90
10417;DHT22;62605;49.432;8.680;2023-07-13T15:11:51;25.70;99.90
10417;DHT22;62605;49.432;8.680;2023-07-13T15:14:18;25.50;99.90
10417;DHT22;62605;49.432;8.680;2023-07-13T15:16:47;25.60;99.90
10417;DHT22;62605;49.432;8.680;2023-07-13T15:19:16;25.50;99.90
10417;DHT22;62605;49.432;8.680;2023-07-13T15:21:46;25.70;99.90
10417;DHT22;62605;49.432;8.680;2023-07-13T15:24:14;25.80;99.90
10417;DHT22;62605;49.432;8.680;2023-07-13T15:26:41;25.60;99.90
10417;DHT22;62605;49.432;8.680;2023-07-13T15:29:11;25.80;99.90
10417;DHT22;62605;49.432;8.680;2023-07-13T15:31:38;25.90;99.90
10417;DHT22;62605;49.432;8.680;2023-07-13T15:34:11;25.70;99.90
10417;DHT22;62605;49.432;8.680;2023-07-13T15:36:39;25.80;99.90
10417;DHT22;62605;49.432;8.680;2023-07-13T15:39:13;25.90;99.90
10417;DHT22;62605;49.432;8.680;2023-07-13T15:41:42;26.70;99.90
10417;DHT22;62605;49.432;8.680;2023-07-13T15:44:23;27.10;99.90
10417;DHT22;62605;49.432;8.680;2023-07-13T15:46:51;26.80;99.90
10417;DHT22;62605;49.432;8.680;2023-07-13T15:49:18;26.20;99.90
10417;DHT22;62605;49.432;8.680;2023-07-13T15:51:46;26.60;99.90
10417;DHT22;62605;49.432;8.680;2023-07-13T15:54:17;26.10;99.90
10417;DHT22;62605;49.432;8.680;2023-07-13T15:56:50;26.20;99.90
10417;DHT22;62605;49.432;8.680;2023-07-13T15:59:18;26.10;99.90
10417;DHT22;62605;49.432;8.680;2023-07-13T16:01:45;26.20;99.90
10417;DHT22;62605;49.432;8.680;2023-07-13T16:04:15;26.50;99.90